Time;durP1;ratioP1;P1;durP2;ratioP2;P2;SDS_P1;SDS_P2;PMS_P1;PMS_P2;Temp;Humidity;BMP_temperature;BMP_pressure;BME280_temperature;BME280_humidity;BME280_pressure;Samples;Min_cycle;Max_cycle;Signal;HPM_P1;HPM_P2
2022/01/13 00:01:14;;;;;;;35.03;21.45;;;;;;;-6.31;78.99;99441.45;1802132;79;21060;-68
2022/01/13 00:03:42;;;;;;;31.65;20.00;;;;;;;-6.27;78.94;99442.82;1802081;79;21100;-65
2022/01/13 00:06:09;;;;;;;32.93;21.60;;;;;;;-6.19;78.88;99446.47;1801989;79;20872;-67
2022/01/13 00:08:36;;;;;;;35.83;21.35;;;;;;;-6.16;78.76;99445.67;1802249;79;21540;-62
2022/01/13 00:11:03;;;;;;;36.05;21.23;;;;;;;-6.12;78.65;99441.79;1802390;79;20966;-67
2022/01/13 00:13:43;;;;;;;32.05;20.23;;;;;;;-6.08;78.51;99436.63;1802361;79;21364;-63
2022/01/13 00:18:52;;;;;;;35.50;20.55;;;;;;;-6.01;78.42;99436.36;1802434;79;20947;-64
2022/01/13 00:21:40;;;;;;;35.85;20.15;;;;;;;-5.96;78.19;99443.27;1802509;79;20927;-62
2022/01/13 00:24:11;;;;;;;33.00;20.30;;;;;;;-5.94;78.13;99448.31;1802091;79;21409;-65
2022/01/13 00:26:35;;;;;;;34.88;21.65;;;;;;;-5.94;78.04;99456.97;1802198;79;20907;-63
2022/01/13 00:29:03;;;;;;;35.05;19.77;;;;;;;-5.93;77.98;99453.85;1802506;79;21103;-62
2022/01/13 00:31:33;;;;;;;34.88;21.12;;;;;;;-5.91;77.97;99463.68;1802254;79;21396;-68
2022/01/13 00:34:04;;;;;;;32.75;20.43;;;;;;;-5.95;77.92;99455.32;1802337;79;20891;-64
2022/01/13 00:36:37;;;;;;;32.28;19.77;;;;;;;-5.93;78.07;99459.89;1802278;79;20857;-68
2022/01/13 00:39:05;;;;;;;30.55;20.17;;;;;;;-5.86;78.01;99458.80;1802345;79;20986;-63
2022/01/13 00:41:32;;;;;;;31.73;19.57;;;;;;;-5.83;77.87;99461.91;1803357;79;21120;-68
2022/01/13 00:44:02;;;;;;;32.63;19.70;;;;;;;-5.81;77.71;99465.19;1802318;79;21304;-69
2022/01/13 00:46:40;;;;;;;38.70;20.48;;;;;;;-5.80;77.59;99463.41;1802404;79;20872;-70
2022/01/13 00:48:58;;;;;;;32.42;19.32;;;;;;;-5.80;77.55;99447.75;1800949;79;21315;-65
2022/01/13 00:51:25;;;;;;;31.57;20.23;;;;;;;-5.77;77.57;99450.06;1802317;79;20924;-64
2022/01/13 00:53:52;;;;;;;34.13;18.90;;;;;;;-5.74;77.41;99442.73;1802451;79;21781;-68
2022/01/13 00:56:20;;;;;;;29.50;17.77;;;;;;;-5.72;77.41;99438.17;1802202;79;20821;-67
2022/01/13 00:58:47;;;;;;;32.60;18.95;;;;;;;-5.72;77.31;99440.78;1802288;79;20934;-63
2022/01/13 01:01:14;;;;;;;27.02;17.30;;;;;;;-5.70;77.32;99447.97;1802261;79;20955;-64
2022/01/13 01:03:42;;;;;;;30.45;18.82;;;;;;;-5.66;77.13;99454.55;1802413;79;20875;-63
2022/01/13 01:06:09;;;;;;;32.00;18.82;;;;;;;-5.64;77.17;99457.83;1802295;79;21124;-61
2022/01/13 01:08:36;;;;;;;29.12;18.32;;;;;;;-5.62;77.13;99446.73;1802436;79;21401;-64
2022/01/13 01:11:03;;;;;;;27.20;18.17;;;;;;;-5.59;77.18;99438.61;1802274;79;20896;-66
2022/01/13 01:13:32;;;;;;;30.37;18.37;;;;;;;-5.56;76.91;99438.28;1802247;79;20915;-60
2022/01/13 01:16:01;;;;;;;26.35;17.85;;;;;;;-5.57;76.96;99431.44;1802285;79;20979;-65
2022/01/13 01:18:40;;;;;;;27.85;17.35;;;;;;;-5.51;76.91;99417.45;1802576;79;21031;-61
2022/01/13 01:29:21;;;;;;;25.32;16.25;;;;;;;-5.34;76.48;99419.16;1802512;79;21437;-60
2022/01/13 01:31:47;;;;;;;27.93;16.87;;;;;;;-5.33;76.31;99407.27;1801579;79;21108;-63
2022/01/13 01:36:56;;;;;;;28.10;17.50;;;;;;;-5.30;76.15;99385.25;1802262;79;21410;-61
2022/01/13 01:39:24;;;;;;;28.80;16.77;;;;;;;-5.28;75.91;99378.07;1802419;79;20950;-61
2022/01/13 01:41:53;;;;;;;27.37;16.30;;;;;;;-5.32;75.75;99376.75;1802190;79;20868;-68
2022/01/13 01:44:29;;;;;;;30.65;16.93;;;;;;;-5.36;75.69;99371.01;1802276;79;21115;-60
2022/01/13 01:46:55;;;;;;;24.32;16.20;;;;;;;-5.42;75.58;99365.59;1802365;79;21390;-61
2022/01/13 01:49:24;;;;;;;27.98;17.35;;;;;;;-5.48;75.66;99361.80;1802275;79;20861;-65
2022/01/13 01:52:00;;;;;;;28.35;18.02;;;;;;;-5.53;75.71;99355.43;1802130;79;20927;-68
2022/01/13 01:54:27;;;;;;;35.25;17.98;;;;;;;-5.59;75.67;99361.59;1802336;79;21613;-62
2022/01/13 01:56:54;;;;;;;27.05;17.20;;;;;;;-5.66;75.76;99360.58;1802215;79;21115;-63
2022/01/13 01:59:25;;;;;;;26.80;18.00;;;;;;;-5.73;75.90;99353.03;1802758;79;20872;-61
2022/01/13 02:01:51;;;;;;;30.17;17.50;;;;;;;-5.73;76.04;99348.30;1802671;79;20852;-63
2022/01/13 02:04:19;;;;;;;37.23;17.73;;;;;;;-5.71;76.14;99346.34;1802235;79;20907;-69
2022/01/13 02:06:46;;;;;;;28.83;18.25;;;;;;;-5.70;76.30;99346.17;1802273;79;20982;-64
2022/01/13 02:09:16;;;;;;;30.12;17.25;;;;;;;-5.63;76.36;99339.88;1802113;79;21879;-62
2022/01/13 02:11:46;;;;;;;29.05;16.23;;;;;;;-5.62;76.28;99331.88;1802056;79;20915;-61
2022/01/13 02:17:12;;;;;;;31.48;17.70;;;;;;;-5.57;76.31;99346.59;1802198;79;20939;-67
2022/01/13 02:19:41;;;;;;;33.20;17.35;;;;;;;-5.52;76.30;99358.35;1802562;78;20837;-66
2022/01/13 02:22:08;;;;;;;28.60;17.02;;;;;;;-5.44;76.22;99357.10;1802126;79;21052;-61
2022/01/13 02:24:35;;;;;;;29.23;16.80;;;;;;;-5.41;75.97;99352.85;1802248;79;20915;-67
2022/01/13 02:27:04;;;;;;;28.92;17.05;;;;;;;-5.44;75.87;99353.19;1802119;79;20915;-63
2022/01/13 02:29:31;;;;;;;26.10;16.25;;;;;;;-5.49;75.97;99354.13;1802194;79;20923;-69
2022/01/13 02:31:58;;;;;;;27.13;16.48;;;;;;;-5.49;76.01;99337.98;1802294;79;21419;-65
2022/01/13 02:34:25;;;;;;;26.15;15.75;;;;;;;-5.49;76.06;99322.80;1802302;79;21108;-62
2022/01/13 02:36:54;;;;;;;26.97;17.00;;;;;;;-5.48;76.21;99316.59;1802063;79;20829;-61
2022/01/13 02:39:22;;;;;;;26.75;17.05;;;;;;;-5.47;76.24;99320.85;1802117;79;21364;-62
2022/01/13 02:41:48;;;;;;;28.00;17.25;;;;;;;-5.51;76.32;99319.53;1802178;79;20892;-67
2022/01/13 02:44:19;;;;;;;31.02;17.92;;;;;;;-5.54;76.52;99328.49;1802241;79;20888;-62
2022/01/13 02:49:18;;;;;;;32.17;18.20;;;;;;;-5.49;76.74;99325.41;1802157;79;20967;-64
2022/01/13 02:51:47;;;;;;;30.90;18.27;;;;;;;-5.42;76.88;99325.13;1802084;79;20907;-61
2022/01/13 02:54:15;;;;;;;34.03;17.60;;;;;;;-5.39;76.64;99318.28;1802550;79;20955;-60
2022/01/13 02:56:43;;;;;;;33.90;18.70;;;;;;;-5.38;76.53;99313.38;1802290;79;20910;-68
2022/01/13 02:59:11;;;;;;;28.60;17.25;;;;;;;-5.39;76.69;99311.25;1802106;79;22179;-69
2022/01/13 03:01:38;;;;;;;29.52;17.85;;;;;;;-5.35;76.60;99290.88;1802152;78;21443;-61
2022/01/13 03:04:07;;;;;;;30.05;17.70;;;;;;;-5.33;76.59;99278.47;1802183;79;21035;-64
2022/01/13 03:06:38;;;;;;;31.60;19.52;;;;;;;-5.34;76.55;99267.68;1802263;79;20963;-61
2022/01/13 03:09:12;;;;;;;30.23;18.30;;;;;;;-5.31;76.52;99258.23;1802248;79;20986;-68
2022/01/13 03:11:39;;;;;;;35.40;20.80;;;;;;;-5.28;76.50;99255.31;1802383;79;21012;-62
2022/01/13 03:14:12;;;;;;;33.55;19.45;;;;;;;-5.32;76.54;99261.84;1802104;79;20900;-60
2022/01/13 03:16:39;;;;;;;35.80;20.23;;;;;;;-5.35;76.72;99267.37;1801728;79;20919;-62
2022/01/13 03:19:05;;;;;;;32.67;20.15;;;;;;;-5.37;76.91;99264.10;1802739;79;20955;-65
2022/01/13 03:21:32;;;;;;;35.28;20.23;;;;;;;-5.36;77.04;99278.78;1802175;79;20888;-67
2022/01/13 03:23:59;;;;;;;34.67;20.15;;;;;;;-5.39;77.17;99259.53;1802227;79;21055;-69
2022/01/13 03:26:28;;;;;;;35.10;20.88;;;;;;;-5.38;77.25;99254.63;1802508;79;20848;-62
2022/01/13 03:29:04;;;;;;;34.08;19.77;;;;;;;-5.35;77.36;99239.47;1802198;79;21498;-65
2022/01/13 03:31:23;;;;;;;34.08;17.65;;;;;;;-5.32;77.40;99246.16;1800830;79;20963;-66
2022/01/13 03:33:51;;;;;;;37.23;21.17;;;;;;;-5.31;77.53;99263.45;1802224;79;21438;-62
2022/01/13 03:36:18;;;;;;;35.80;20.17;;;;;;;-5.30;77.61;99276.86;1802195;79;21059;-61
2022/01/13 03:38:45;;;;;;;37.58;21.27;;;;;;;-5.28;77.80;99268.37;1802085;79;20920;-67
2022/01/13 03:41:13;;;;;;;36.55;21.48;;;;;;;-5.24;77.87;99277.52;1802382;79;20904;-61
2022/01/13 03:43:40;;;;;;;38.35;20.90;;;;;;;-5.21;77.99;99281.12;1802334;79;21399;-63
2022/01/13 03:46:07;;;;;;;34.90;20.60;;;;;;;-5.20;78.02;99274.91;1802377;79;20919;-68
2022/01/13 03:48:35;;;;;;;39.05;21.55;;;;;;;-5.16;78.13;99277.55;1802325;79;21080;-61
2022/01/13 03:51:02;;;;;;;37.03;21.05;;;;;;;-5.12;78.22;99272.33;1802171;79;20907;-67
2022/01/13 03:53:34;;;;;;;38.80;22.45;;;;;;;-5.08;78.21;99281.47;1802562;79;21399;-62
2022/01/13 03:56:55;;;;;;;37.10;20.72;;;;;;;-5.07;78.31;99273.97;1802356;79;20900;-60
2022/01/13 04:00:06;;;;;;;38.55;20.77;;;;;;;-5.05;78.33;99262.87;1776719;80;20924;-65
2022/01/13 04:02:36;;;;;;;32.17;19.90;;;;;;;-5.01;78.43;99257.16;1758860;80;21173;-63
2022/01/13 04:05:03;;;;;;;36.13;21.30;;;;;;;-4.99;78.47;99259.12;1797093;79;20931;-63
2022/01/13 04:07:30;;;;;;;39.58;21.85;;;;;;;-4.99;78.50;99245.23;1802328;79;20975;-66
2022/01/13 04:10:05;;;;;;;39.15;22.32;;;;;;;-4.98;78.66;99235.12;1802321;79;20880;-62
2022/01/13 04:12:32;;;;;;;39.98;22.52;;;;;;;-4.94;78.75;99227.27;1800945;79;26597;-69
2022/01/13 04:15:01;;;;;;;38.78;22.75;;;;;;;-4.91;78.76;99235.62;1802582;79;21097;-70
2022/01/13 04:17:27;;;;;;;38.73;21.57;;;;;;;-4.88;78.83;99233.17;1802253;79;20916;-64
2022/01/13 04:19:56;;;;;;;40.15;22.10;;;;;;;-4.82;78.77;99225.98;1802270;79;20891;-66
2022/01/13 04:22:23;;;;;;;37.85;20.90;;;;;;;-4.78;78.71;99223.87;1802241;79;21423;-70
2022/01/13 04:24:51;;;;;;;40.63;22.17;;;;;;;-4.75;78.76;99222.22;1757158;79;20896;-70
2022/01/13 04:27:24;;;;;;;37.55;22.17;;;;;;;-4.75;78.65;99225.66;1802328;79;21124;-71
2022/01/13 04:30:22;;;;;;;37.55;21.65;;;;;;;-4.72;78.67;99218.80;1802180;79;20903;-64
2022/01/13 04:32:29;;;;;;;35.68;21.30;;;;;;;-4.68;78.44;99220.09;1799212;79;20876;-68
2022/01/13 04:34:56;;;;;;;40.85;22.20;;;;;;;-4.68;78.53;99220.09;1802297;79;21536;-63
2022/01/13 04:37:23;;;;;;;38.63;22.50;;;;;;;-4.70;78.46;99206.38;1803360;79;20844;-61
2022/01/13 04:39:49;;;;;;;39.67;22.55;;;;;;;-4.74;78.45;99211.61;1802404;79;21721;-63
2022/01/13 04:42:16;;;;;;;37.28;21.55;;;;;;;-4.78;78.54;99210.28;1802240;79;20954;-61
2022/01/13 04:44:43;;;;;;;38.40;22.13;;;;;;;-4.78;78.60;99195.91;1802305;79;20904;-64
2022/01/13 04:47:11;;;;;;;38.35;22.58;;;;;;;-4.76;78.62;99199.69;1802141;79;21335;-68
2022/01/13 04:49:38;;;;;;;39.05;21.60;;;;;;;-4.79;78.60;99181.22;1802385;79;20903;-65
2022/01/13 04:52:06;;;;;;;39.13;21.07;;;;;;;-4.81;78.68;99177.96;1802481;79;21759;-63
2022/01/13 04:54:32;;;;;;;38.53;22.30;;;;;;;-4.80;78.73;99163.89;1802206;79;20876;-61
2022/01/13 04:57:14;;;;;;;38.13;22.07;;;;;;;-4.83;78.85;99161.63;1802271;79;20863;-60
2022/01/13 04:59:33;;;;;;;38.80;22.55;;;;;;;-4.83;79.04;99156.41;1801089;79;21413;-66
2022/01/13 05:02:00;;;;;;;35.58;21.73;;;;;;;-4.81;79.00;99154.92;1802186;79;20880;-68
2022/01/13 05:04:27;;;;;;;42.50;22.10;;;;;;;-4.79;79.02;99152.47;1802308;79;21857;-60
2022/01/13 05:06:54;;;;;;;34.30;18.50;;;;;;;-4.73;78.98;99156.23;1802210;79;20951;-63
2022/01/13 05:09:20;;;;;;;35.95;20.57;;;;;;;-4.70;79.00;99156.70;1802265;79;20833;-60
2022/01/13 05:11:47;;;;;;;38.92;21.73;;;;;;;-4.67;78.90;99149.84;1802259;79;20891;-64
2022/01/13 05:14:14;;;;;;;36.95;20.92;;;;;;;-4.65;78.76;99154.90;1802488;79;21441;-64
2022/01/13 05:19:40;;;;;;;36.33;19.57;;;;;;;-4.62;78.77;99150.17;1802491;79;20888;-63
2022/01/13 05:24:25;;;;;;;39.60;21.77;;;;;;;-4.64;78.66;99148.19;1816564;79;21001;-64
2022/01/13 05:26:52;;;;;;;36.10;20.77;;;;;;;-4.67;78.72;99139.39;1816607;79;20899;-70
2022/01/13 05:29:20;;;;;;;35.55;22.90;;;;;;;-4.64;78.83;99121.25;1816492;79;21106;-61
2022/01/13 05:31:49;;;;;;;39.60;21.50;;;;;;;-4.62;78.85;99125.34;1816506;79;20931;-61
2022/01/13 05:34:17;;;;;;;37.75;21.73;;;;;;;-4.58;78.85;99135.77;1816475;79;20915;-61
2022/01/13 05:36:44;;;;;;;33.05;19.37;;;;;;;-4.54;78.95;99125.30;1816358;78;20993;-65
2022/01/13 05:39:11;;;;;;;35.70;21.33;;;;;;;-4.53;79.15;99102.59;1816512;79;21379;-68
2022/01/13 05:41:38;;;;;;;38.80;21.30;;;;;;;-4.55;79.32;99083.64;1816472;78;21073;-64
2022/01/13 05:44:05;;;;;;;35.60;20.57;;;;;;;-4.57;79.53;99103.39;1816423;78;20923;-68
2022/01/13 05:46:32;;;;;;;34.58;21.52;;;;;;;-4.53;79.75;99094.25;1816588;78;20902;-69
2022/01/13 05:49:00;;;;;;;36.68;20.52;;;;;;;-4.52;79.79;99098.48;1816456;78;20872;-68
2022/01/13 05:51:27;;;;;;;35.60;23.55;;;;;;;-4.52;79.92;99103.72;1816477;78;20915;-60
2022/01/13 05:53:54;;;;;;;38.53;22.80;;;;;;;-4.53;80.29;99103.89;1816902;78;21925;-60
2022/01/13 05:56:21;;;;;;;38.85;22.58;;;;;;;-4.53;80.47;99109.13;1816958;79;20863;-65
2022/01/13 05:58:47;;;;;;;39.23;21.70;;;;;;;-4.51;80.56;99110.59;1816724;79;20965;-66
2022/01/13 06:01:15;;;;;;;38.67;22.55;;;;;;;-4.53;80.70;99138.71;1816644;79;20927;-64
2022/01/13 06:03:42;;;;;;;37.93;23.12;;;;;;;-4.55;80.88;99134.63;1816487;79;20940;-61
2022/01/13 06:06:10;;;;;;;36.75;22.82;;;;;;;-4.57;80.91;99147.84;1816545;79;21106;-61
2022/01/13 06:08:38;;;;;;;39.95;23.92;;;;;;;-4.58;81.29;99155.39;1816378;79;20836;-68
2022/01/13 06:11:04;;;;;;;39.60;23.73;;;;;;;-4.57;81.36;99145.75;1816531;79;20958;-71
2022/01/13 06:13:31;;;;;;;39.58;23.27;;;;;;;-4.58;81.55;99154.56;1816415;79;20914;-67
2022/01/13 06:15:58;;;;;;;41.13;23.77;;;;;;;-4.60;81.76;99145.59;1816479;79;21454;-65
2022/01/13 06:18:25;;;;;;;45.43;26.40;;;;;;;-4.58;81.64;99134.95;1816404;79;21101;-67
2022/01/13 06:20:52;;;;;;;40.15;24.12;;;;;;;-4.58;81.97;99144.92;1816606;78;20903;-73
2022/01/13 06:23:18;;;;;;;43.87;24.27;;;;;;;-4.59;82.12;99153.73;1816381;79;20840;-67
2022/01/13 06:25:45;;;;;;;44.90;23.67;;;;;;;-4.64;82.14;99132.50;1816492;79;21362;-70
2022/01/13 06:28:12;;;;;;;39.13;23.50;;;;;;;-4.63;82.31;99128.91;1816720;79;20867;-67
2022/01/13 06:30:39;;;;;;;36.85;23.10;;;;;;;-4.62;82.48;99138.41;1816437;79;21025;-62
2022/01/13 06:33:06;;;;;;;45.12;24.72;;;;;;;-4.60;82.48;99138.23;1816364;79;20875;-62
2022/01/13 06:35:33;;;;;;;43.05;25.23;;;;;;;-4.58;82.58;99131.86;1816497;79;20949;-61
2022/01/13 06:38:00;;;;;;;41.75;23.60;;;;;;;-4.59;82.97;99114.52;1816260;79;20887;-69
2022/01/13 06:40:27;;;;;;;45.63;25.00;;;;;;;-4.61;82.86;99103.41;1816442;79;20887;-66
2022/01/13 06:42:54;;;;;;;44.45;25.27;;;;;;;-4.63;82.98;99092.31;1816442;79;21043;-61
2022/01/13 06:45:20;;;;;;;39.30;24.10;;;;;;;-4.59;83.16;99092.30;1816335;79;20856;-68
2022/01/13 06:47:47;;;;;;;43.80;25.32;;;;;;;-4.58;83.08;99078.25;1812144;79;21006;-69
2022/01/13 06:50:16;;;;;;;42.08;26.37;;;;;;;-4.52;83.29;99089.33;1775429;79;20946;-68
2022/01/13 06:52:43;;;;;;;41.48;25.23;;;;;;;-4.56;83.38;99090.66;1793423;80;21026;-62
2022/01/13 06:55:09;;;;;;;40.40;23.52;;;;;;;-4.56;83.55;99097.20;1792441;79;21117;-63
2022/01/13 06:57:37;;;;;;;42.30;25.30;;;;;;;-4.53;83.70;99092.13;1793502;80;21437;-63
2022/01/13 07:00:06;;;;;;;39.50;25.00;;;;;;;-4.53;83.78;99113.87;1794403;79;21545;-62
2022/01/13 07:02:34;;;;;;;40.48;24.92;;;;;;;-4.50;83.87;99113.52;1788987;80;20946;-70
2022/01/13 07:05:01;;;;;;;41.73;25.75;;;;;;;-4.45;83.98;99119.06;1798075;78;20862;-63
2022/01/13 07:07:35;;;;;;;42.53;25.97;;;;;;;-4.39;83.98;99106.64;1829905;78;21067;-70
2022/01/13 07:10:03;;;;;;;48.42;26.48;;;;;;;-4.38;84.11;99104.84;1815428;78;21394;-62
2022/01/13 07:12:31;;;;;;;40.08;25.12;;;;;;;-4.39;84.15;99089.64;1778557;79;20969;-56
2022/01/13 07:14:57;;;;;;;44.10;25.70;;;;;;;-4.36;84.32;99099.73;1770120;79;20974;-65
2022/01/13 07:17:25;;;;;;;39.80;24.92;;;;;;;-4.33;84.45;99116.89;1780723;79;21575;-61
2022/01/13 07:19:52;;;;;;;40.35;24.65;;;;;;;-4.39;85.04;99104.02;1783899;79;21187;-68
2022/01/13 07:22:19;;;;;;;46.08;26.05;;;;;;;-4.42;85.24;99102.22;1766437;80;20954;-65
2022/01/13 07:24:46;;;;;;;44.25;26.55;;;;;;;-4.39;85.62;99100.09;1782597;80;21502;-63
2022/01/13 07:27:12;;;;;;;45.28;27.25;;;;;;;-4.36;85.77;99091.89;1792521;77;21152;-61
2022/01/13 07:29:45;;;;;;;45.25;26.35;;;;;;;-4.31;86.22;99096.64;1838120;77;20868;-67
2022/01/13 07:32:12;;;;;;;39.70;24.15;;;;;;;-4.29;86.24;99081.59;1840846;77;21031;-69
2022/01/13 07:34:39;;;;;;;40.85;26.17;;;;;;;-4.31;86.36;99062.13;1807936;77;20912;-60
2022/01/13 07:37:06;;;;;;;42.25;25.70;;;;;;;-4.29;86.84;99064.09;1766784;80;21463;-60
2022/01/13 07:39:35;;;;;;;41.92;25.25;;;;;;;-4.27;86.90;99062.13;1762770;80;21074;-65
2022/01/13 07:42:05;;;;;;;40.52;24.95;;;;;;;-4.26;86.78;99063.73;1809017;77;21320;-67
2022/01/13 07:44:34;;;;;;;40.55;24.43;;;;;;;-4.23;86.98;99062.09;1804560;77;21094;-68
2022/01/13 07:47:00;;;;;;;37.78;24.00;;;;;;;-4.21;86.91;99053.58;1798941;77;20864;-62
2022/01/13 07:49:29;;;;;;;39.35;25.05;;;;;;;-4.18;86.96;99037.55;1782739;79;21276;-63
2022/01/13 07:51:58;;;;;;;46.10;24.98;;;;;;;-4.10;87.09;99027.54;1790680;79;20955;-65
2022/01/13 07:54:27;;;;;;;41.75;24.43;;;;;;;-4.03;86.89;99032.41;1788959;77;21545;-68
2022/01/13 07:56:54;;;;;;;41.92;23.52;;;;;;;-3.92;86.77;99031.18;1815749;77;21184;-62
2022/01/13 07:59:27;;;;;;;41.33;25.37;;;;;;;-3.89;86.67;99021.69;1776535;80;20881;-66
2022/01/13 08:01:51;;;;;;;43.02;25.08;;;;;;;-3.87;86.75;99009.23;1837697;77;20967;-61
2022/01/13 08:04:18;;;;;;;41.08;24.55;;;;;;;-3.85;86.62;99013.80;1831140;77;20884;-66
2022/01/13 08:06:46;;;;;;;44.77;26.20;;;;;;;-3.87;86.78;99006.61;1811989;77;20931;-68
2022/01/13 08:09:14;;;;;;;44.18;25.72;;;;;;;-3.88;86.94;99008.41;1817508;77;21047;-67
2022/01/13 08:11:40;;;;;;;41.40;24.75;;;;;;;-3.89;86.95;99000.74;1798914;77;20862;-65
2022/01/13 08:14:07;;;;;;;38.73;24.27;;;;;;;-3.89;87.02;98995.02;1789465;79;20881;-71
2022/01/13 08:16:36;;;;;;;41.98;25.30;;;;;;;-3.86;87.19;98991.24;1813544;77;21538;-68
2022/01/13 08:21:48;;;;;;;44.42;25.72;;;;;;;-3.88;87.42;98997.12;1795250;77;21115;-57
2022/01/13 08:24:15;;;;;;;44.83;25.82;;;;;;;-3.85;87.39;99000.22;1810039;77;20876;-65
2022/01/13 08:26:45;;;;;;;47.93;26.70;;;;;;;-3.80;87.42;99003.63;1777389;80;21469;-63
2022/01/13 08:29:12;;;;;;;47.95;27.45;;;;;;;-3.78;87.55;99009.00;1802494;79;20908;-64
2022/01/13 08:31:39;;;;;;;46.05;26.52;;;;;;;-3.73;87.72;99011.09;1790266;78;20956;-60
2022/01/13 08:34:07;;;;;;;52.95;28.95;;;;;;;-3.69;87.56;99009.26;1787368;79;21157;-65
2022/01/13 08:36:35;;;;;;;47.38;28.47;;;;;;;-3.65;87.73;99014.98;1809903;78;20920;-63
2022/01/13 08:39:02;;;;;;;46.90;27.50;;;;;;;-3.61;87.87;99025.41;1783665;79;20907;-59
2022/01/13 08:41:28;;;;;;;45.23;25.57;;;;;;;-3.59;87.85;99021.62;1820314;78;21438;-62
2022/01/13 08:43:55;;;;;;;42.62;25.32;;;;;;;-3.59;88.02;99023.43;1812281;78;21066;-66
2022/01/13 08:46:24;;;;;;;41.77;24.35;;;;;;;-3.60;88.34;99031.77;1797045;78;21115;-64
2022/01/13 08:48:51;;;;;;;46.77;27.35;;;;;;;-3.64;88.63;99028.38;1793782;78;20951;-61
2022/01/13 08:51:18;;;;;;;44.95;27.67;;;;;;;-3.62;88.54;99033.76;1830982;78;21055;-63
2022/01/13 08:53:46;;;;;;;46.30;28.70;;;;;;;-3.56;88.79;99040.11;1722904;81;21499;-61
2022/01/13 08:56:14;;;;;;;45.98;27.45;;;;;;;-3.52;88.93;99057.09;1730427;81;21440;-60
2022/01/13 08:58:41;;;;;;;43.23;26.37;;;;;;;-3.46;88.72;99060.31;1747278;82;21136;-63
2022/01/13 09:01:08;;;;;;;46.50;27.80;;;;;;;-3.40;88.88;99068.80;1806604;79;20904;-60
2022/01/13 09:03:36;;;;;;;53.87;30.45;;;;;;;-3.41;88.92;99067.16;1804049;78;20940;-62
2022/01/13 09:06:03;;;;;;;45.48;27.93;;;;;;;-3.41;88.94;99059.30;1814826;78;20916;-64
2022/01/13 09:08:31;;;;;;;49.40;27.85;;;;;;;-3.38;89.12;99051.09;1804651;78;21516;-59
2022/01/13 09:10:57;;;;;;;52.23;29.23;;;;;;;-3.33;89.29;99043.52;1802516;79;21133;-61
2022/01/13 09:13:24;;;;;;;53.78;25.80;;;;;;;-3.30;89.20;99026.15;1805703;78;20930;-58
2022/01/13 09:16:01;;;;;;;50.08;29.77;;;;;;;-3.27;89.21;99010.05;1838426;78;21490;-61
2022/01/13 09:18:45;;;;;;;54.00;28.90;;;;;;;-3.28;89.27;99009.75;1731536;81;21116;-66
2022/01/13 09:21:01;;;;;;;47.40;28.23;;;;;;;-3.23;89.30;99018.38;1724069;83;20966;-63
2022/01/13 09:23:29;;;;;;;51.88;26.90;;;;;;;-3.18;89.43;99011.59;1727413;82;21170;-59
2022/01/13 09:25:58;;;;;;;45.08;28.55;;;;;;;-3.18;89.24;99023.39;1734509;82;21112;-65
2022/01/13 09:28:24;;;;;;;51.30;29.52;;;;;;;-3.19;89.68;99019.16;1734373;82;21028;-63
2022/01/13 09:30:51;;;;;;;1999.90;999.90;;;;;;;-3.20;89.65;99029.83;1735336;82;21013;-60
2022/01/13 09:33:18;;;;;;;248.05;65.92;;;;;;;-3.19;89.81;99027.52;1735935;82;20950;-64
2022/01/13 09:35:45;;;;;;;1999.90;999.90;;;;;;;-3.16;89.82;99023.23;1735800;82;21839;-64
2022/01/13 09:38:12;;;;;;;24.30;15.78;;;;;;;-3.12;90.11;99011.39;1735695;82;20919;-60
2022/01/13 09:40:40;;;;;;;1999.90;999.90;;;;;;;-3.12;90.09;99001.73;1735846;82;21362;-64
2022/01/13 09:43:06;;;;;;;1999.90;999.90;;;;;;;-3.11;90.16;98989.45;1731872;82;21010;-67
2022/01/13 09:45:33;;;;;;;46.53;26.65;;;;;;;-3.10;90.40;98976.15;1731769;82;21524;-67
2022/01/13 09:48:00;;;;;;;48.58;28.00;;;;;;;-3.10;90.34;98978.77;1731632;82;21484;-63
2022/01/13 09:50:26;;;;;;;51.13;27.10;;;;;;;-3.07;90.47;98977.60;1731838;82;20962;-65
2022/01/13 09:52:53;;;;;;;48.63;27.73;;;;;;;-3.03;90.57;98974.93;1738171;81;21537;-62
2022/01/13 09:55:20;;;;;;;48.58;26.40;;;;;;;-3.01;90.66;98982.93;1759321;81;20943;-63
2022/01/13 09:57:49;;;;;;;51.70;28.67;;;;;;;-3.01;90.92;98977.69;1766948;81;21474;-64
2022/01/13 10:00:25;;;;;;;49.13;27.98;;;;;;;-3.01;91.07;98967.20;1767273;81;20876;-61
2022/01/13 10:02:53;;;;;;;45.85;25.48;;;;;;;-2.97;91.38;98972.92;1735911;82;20852;-63
2022/01/13 10:05:22;;;;;;;48.33;26.25;;;;;;;-2.94;91.16;98968.11;1739245;82;21084;-63
2022/01/13 10:07:52;;;;;;;57.17;28.80;;;;;;;-2.93;91.31;98952.71;1727971;83;20952;-61
2022/01/13 10:10:20;;;;;;;51.98;28.07;;;;;;;-2.92;91.67;98953.01;1728038;83;21547;-66
2022/01/13 10:12:51;;;;;;;48.90;27.95;;;;;;;-2.90;91.78;98944.45;1751211;81;21743;-68
2022/01/13 10:18:06;;;;;;;50.65;26.35;;;;;;;-2.84;91.78;98931.95;1779616;80;20893;-61
2022/01/13 10:20:34;;;;;;;53.05;28.02;;;;;;;-2.77;91.83;98928.09;1779271;80;20973;-64
2022/01/13 10:23:12;;;;;;;51.37;28.32;;;;;;;-2.73;91.82;98935.11;1779438;80;20924;-61
2022/01/13 10:25:43;;;;;;;50.30;28.23;;;;;;;-2.72;91.83;98923.61;1770516;80;21116;-61
2022/01/13 10:28:20;;;;;;;50.63;27.75;;;;;;;-2.65;92.06;98920.08;1750936;82;20857;-63
2022/01/13 10:30:52;;;;;;;45.73;26.15;;;;;;;-2.58;91.95;98902.61;1736801;80;21341;-63
2022/01/13 10:33:24;;;;;;;46.37;24.77;;;;;;;-2.56;91.90;98906.34;1720951;80;21479;-63
2022/01/13 10:35:55;;;;;;;46.18;26.97;;;;;;;-2.57;92.12;98898.18;1744030;82;20951;-61
2022/01/13 10:38:21;;;;;;;46.53;26.93;;;;;;;-2.55;92.20;98892.25;1750723;82;21838;-64
2022/01/13 10:40:50;;;;;;;48.23;28.57;;;;;;;-2.53;92.15;98881.88;1750782;82;20978;-64
2022/01/13 10:43:22;;;;;;;46.40;25.88;;;;;;;-2.50;92.50;98888.57;1750973;81;21447;-58
2022/01/13 10:45:57;;;;;;;49.23;26.65;;;;;;;-2.47;92.38;98879.03;1751248;82;20927;-62
2022/01/13 10:51:04;;;;;;;49.18;26.62;;;;;;;-2.44;92.63;98864.20;1750895;82;21812;-60
2022/01/13 10:53:39;;;;;;;50.17;27.40;;;;;;;-2.42;92.49;98847.77;1721333;82;20872;-62
2022/01/13 10:56:11;;;;;;;47.08;25.97;;;;;;;-2.41;92.63;98846.79;1721301;83;20978;-64
2022/01/13 10:58:41;;;;;;;47.17;26.02;;;;;;;-2.41;92.88;98839.73;1720858;83;21474;-60
2022/01/13 11:01:10;;;;;;;47.62;27.60;;;;;;;-2.39;93.00;98846.91;1720173;83;21090;-68
2022/01/13 11:03:40;;;;;;;45.65;25.80;;;;;;;-2.33;93.16;98824.38;1720959;83;21133;-60
2022/01/13 11:06:09;;;;;;;43.42;24.57;;;;;;;-2.28;93.20;98817.54;1720862;83;20935;-66
2022/01/13 11:08:42;;;;;;;1999.90;999.90;;;;;;;-2.21;93.26;98816.28;1720833;83;21459;-66
2022/01/13 11:11:24;;;;;;;48.45;36.80;;;;;;;-2.15;93.19;98801.10;1719990;83;21804;-60
2022/01/13 11:14:07;;;;;;;39.45;23.22;;;;;;;-2.07;93.25;98798.84;1721009;83;46042;-60
2022/01/13 11:16:30;;;;;;;48.92;25.30;;;;;;;-2.04;93.24;98787.45;1720265;83;21085;-61
2022/01/13 11:18:58;;;;;;;39.85;24.02;;;;;;;-2.03;93.31;98778.59;1728608;80;20998;-62
2022/01/13 11:21:26;;;;;;;43.40;26.85;;;;;;;-2.01;93.40;98792.33;1755329;80;20986;-66
2022/01/13 11:23:53;;;;;;;47.00;25.30;;;;;;;-2.04;93.62;98777.45;1787669;79;20955;-70
2022/01/13 11:26:26;;;;;;;42.95;26.27;;;;;;;-2.05;93.76;98776.66;1737739;82;20928;-59
2022/01/13 11:28:50;;;;;;;43.50;26.45;;;;;;;-2.04;93.83;98782.20;1764012;81;21404;-67
2022/01/13 11:31:18;;;;;;;45.83;27.62;;;;;;;-2.03;93.99;98794.34;1760680;81;20931;-65
2022/01/13 11:33:44;;;;;;;46.83;27.02;;;;;;;-2.03;94.37;98804.02;1759138;81;20951;-66
2022/01/13 11:36:12;;;;;;;50.43;27.37;;;;;;;-2.03;94.15;98792.20;1729230;81;21399;-62
2022/01/13 11:38:41;;;;;;;44.10;25.45;;;;;;;-1.99;94.22;98790.31;1731499;81;20927;-62
2022/01/13 11:41:08;;;;;;;43.95;26.10;;;;;;;-1.94;94.58;98805.00;1675984;83;21087;-63
2022/01/13 11:43:40;;;;;;;49.18;27.13;;;;;;;-1.91;94.59;98819.07;1728946;81;21022;-60
2022/01/13 11:46:23;;;;;;;44.42;27.45;;;;;;;-1.89;94.80;98827.56;1729107;83;20939;-61
2022/01/13 11:49:15;;;;;;;42.55;26.25;;;;;;;-1.88;94.93;98838.36;1731224;81;20892;-63
2022/01/13 11:52:02;;;;;;;46.73;26.15;;;;;;;-1.87;95.11;98836.06;1740988;82;20933;-61
2022/01/13 11:54:33;;;;;;;43.02;24.47;;;;;;;-1.84;95.46;98825.19;1730330;83;21121;-63
2022/01/13 11:57:17;;;;;;;40.17;25.08;;;;;;;-1.84;95.78;98804.17;1730537;83;20976;-62